This is the latest recevied weather packets stored in our database for station/object SP9MUF-14. If no packets are shown the sender has not sent any weather packets the latest 1 day(s).
| Time | Temp. | Humidity | Pressure | Rain* | Wind** | Luminosity | Snow |
|---|---|---|---|---|---|---|---|
| 1778107164 | 17.78° C | 56% | 1006.7 hPa | 0 mm | - | 0 W/m² | - |
| 1778106860 | 17.78° C | 56% | 1006.7 hPa | 0 mm | - | 0 W/m² | - |
| 1778106556 | 18.89° C | 56% | 1006.7 hPa | 0 mm | - | 0 W/m² | - |
| 1778105343 | 18.89° C | 54% | 1006.6 hPa | 0 mm | - | 0 W/m² | - |
| 1778105039 | 18.89° C | 54% | 1006.7 hPa | 0 mm | - | 0 W/m² | - |
| 1778102909 | 18.89° C | 54% | 1006.7 hPa | 0 mm | - | 0 W/m² | - |
| 1778102605 | 18.89° C | 53% | 1006.8 hPa | 0 mm | - | 0 W/m² | - |
| 1778102301 | 18.89° C | 54% | 1006.8 hPa | 0 mm | - | 0 W/m² | - |
| 1778099869 | 16.67° C | 64% | 1006.7 hPa | 0 mm | - | 0 W/m² | - |
| 1778099261 | 15.56° C | 79% | 1006.7 hPa | 0 mm | - | 0 W/m² | - |
| 1778098957 | 15.56° C | 80% | 1006.8 hPa | 0 mm | - | 0 W/m² | - |
| 1778098045 | 15.56° C | 81% | 1006.7 hPa | 0 mm | - | 0 W/m² | - |
| 1778097437 | 15.56° C | 81% | 1006.7 hPa | 0 mm | - | 0 W/m² | - |
| 1778096525 | 15.56° C | 81% | 1006.7 hPa | 0 mm | - | 0 W/m² | - |
| 1778095917 | 15.56° C | 81% | 1003.5 hPa | 0 mm | - | 0 W/m² | - |
| 1778092272 | 16.67° C | 75% | 1006 hPa | 0 mm | - | 0 W/m² | - |
| 1778091665 | 16.67° C | 76% | 1006 hPa | 0 mm | - | 0 W/m² | - |
| 1778090144 | 17.78° C | 70% | 1005.8 hPa | 0 mm | - | 3 W/m² | - |
| 1778088624 | 18.89° C | 64% | 1005.9 hPa | 0 mm | - | 17 W/m² | - |
| 1778087712 | 18.89° C | 61% | 1005.6 hPa | 0 mm | - | 24 W/m² | - |
| 1778087104 | 18.89° C | 61% | 1005.6 hPa | 0 mm | - | 27 W/m² | - |
| 1778085280 | 18.89° C | 67% | 1005.7 hPa | 0.76 mm | - | 58 W/m² | - |
| 1778083152 | 18.89° C | 58% | 1006 hPa | 0.76 mm | - | 20 W/m² | - |
| 1778081936 | 20.56° C | 54% | 1002.7 hPa | 0.25 mm | - | 27 W/m² | - |
| 1778081632 | 21.67° C | 50% | 1005.8 hPa | 0 mm | - | 11 W/m² | - |
* Rain latest hour (hover to see other rain measurements)
** Current wind speed in m/s (hover to see current wind gust speed)